createdAt,value
2018-07-31T00:02:28.779Z,100773.17
2018-07-31T00:04:57.988Z,100765.59
2018-07-31T00:07:27.246Z,100769.02
2018-07-31T00:09:56.427Z,100769.73
2018-07-31T00:12:26.370Z,100764.77
2018-07-31T00:14:55.584Z,100767.36
2018-07-31T00:17:24.844Z,100760.50
2018-07-31T00:19:54.452Z,100758.55
2018-07-31T00:22:23.731Z,100763.05
2018-07-31T00:24:53.079Z,100762.61
2018-07-31T00:27:22.254Z,100767.54
2018-07-31T00:29:51.470Z,100770.48
2018-07-31T00:32:20.818Z,100774.03
2018-07-31T00:34:49.987Z,100764.28
2018-07-31T00:37:19.208Z,100758.42
2018-07-31T00:39:48.386Z,100761.19
2018-07-31T00:42:17.748Z,100762.03
2018-07-31T00:44:46.966Z,100771.34
2018-07-31T00:47:16.170Z,100773.30
2018-07-31T00:49:45.417Z,100774.88
2018-07-31T00:52:14.622Z,100778.61
2018-07-31T00:54:43.829Z,100776.34
2018-07-31T00:57:13.895Z,100773.72
2018-07-31T00:59:43.058Z,100768.86
2018-07-31T01:02:12.271Z,100770.08
2018-07-31T01:04:41.445Z,100769.16
2018-07-31T01:07:10.666Z,100766.03
2018-07-31T01:09:39.870Z,100761.92
2018-07-31T01:12:09.075Z,100757.33
2018-07-31T01:14:38.865Z,100756.20
2018-07-31T01:17:08.026Z,100755.04
2018-07-31T01:19:37.258Z,100757.09
2018-07-31T01:22:06.553Z,100753.39
2018-07-31T01:24:35.795Z,100746.84
2018-07-31T01:27:05.010Z,100746.42
2018-07-31T01:29:34.222Z,100747.56
2018-07-31T01:32:03.438Z,100743.73
2018-07-31T01:34:32.700Z,100755.33
2018-07-31T01:37:01.943Z,100747.25
2018-07-31T01:39:31.195Z,100746.02
2018-07-31T01:42:00.706Z,100750.49
2018-07-31T01:44:29.924Z,100749.14
2018-07-31T01:46:59.349Z,100749.33
2018-07-31T01:49:28.535Z,100753.39
2018-07-31T01:51:57.718Z,100745.69
2018-07-31T01:54:26.984Z,100745.92
2018-07-31T01:56:56.193Z,100744.58
2018-07-31T01:59:25.459Z,100747.16
2018-07-31T02:01:54.718Z,100750.38
2018-07-31T02:04:24.019Z,100752.44
2018-07-31T02:06:53.225Z,100751.91
2018-07-31T02:09:22.435Z,100752.13
2018-07-31T02:11:51.682Z,100757.02
2018-07-31T02:14:20.605Z,100754.51
2018-07-31T02:16:49.506Z,100753.98
2018-07-31T02:19:18.430Z,100759.99
2018-07-31T02:21:47.415Z,100764.77
2018-07-31T02:24:16.502Z,100759.97
2018-07-31T02:26:45.392Z,100769.63
2018-07-31T02:29:15.047Z,100766.52
2018-07-31T02:31:44.174Z,100769.02
2018-07-31T02:34:13.739Z,100771.03
2018-07-31T02:36:42.668Z,100772.71
2018-07-31T02:39:11.643Z,100768.06
2018-07-31T02:41:41.081Z,100773.99
2018-07-31T02:44:10.010Z,100779.19
2018-07-31T02:46:38.923Z,100767.17
2018-07-31T02:49:07.955Z,100769.95
2018-07-31T02:51:36.827Z,100772.11
2018-07-31T02:54:06.146Z,100774.98
2018-07-31T02:56:35.107Z,100773.13
2018-07-31T02:59:04.347Z,100767.02
2018-07-31T03:01:33.274Z,100772.23
2018-07-31T03:04:02.197Z,100773.89
2018-07-31T03:06:31.232Z,100767.39
2018-07-31T03:09:00.369Z,100763.59
2018-07-31T03:11:29.525Z,100774.67
2018-07-31T03:13:58.510Z,100769.73
2018-07-31T03:16:27.475Z,100766.35
2018-07-31T03:18:56.482Z,100768.92
2018-07-31T03:21:25.578Z,100777.44
2018-07-31T03:23:54.590Z,100781.05
2018-07-31T03:26:23.565Z,100782.99
2018-07-31T03:28:52.532Z,100778.04
2018-07-31T03:31:21.632Z,100781.64
2018-07-31T03:33:50.597Z,100778.39
2018-07-31T03:36:19.566Z,100787.76
2018-07-31T03:38:48.619Z,100783.09
2018-07-31T03:41:18.217Z,100791.19
2018-07-31T03:43:47.174Z,100788.97
2018-07-31T03:46:16.149Z,100783.88
2018-07-31T03:48:45.234Z,100785.13
2018-07-31T03:51:14.255Z,100781.88
2018-07-31T03:53:43.174Z,100786.39
2018-07-31T03:56:12.208Z,100785.18
2018-07-31T03:58:41.167Z,100786.00
2018-07-31T04:01:10.527Z,100786.84
2018-07-31T04:03:39.594Z,100786.41
2018-07-31T04:06:08.729Z,100788.43
2018-07-31T04:08:37.814Z,100797.30
2018-07-31T04:11:06.816Z,100793.59
2018-07-31T04:13:35.773Z,100795.09
2018-07-31T04:16:04.771Z,100789.78
2018-07-31T04:18:33.718Z,100798.14
2018-07-31T04:21:02.673Z,100797.42
2018-07-31T04:23:31.657Z,100800.98
2018-07-31T04:26:00.639Z,100798.10
2018-07-31T04:28:29.649Z,100802.20
2018-07-31T04:30:59.395Z,100799.86
2018-07-31T04:33:29.210Z,100806.80
2018-07-31T04:35:58.229Z,100797.56
2018-07-31T04:38:27.164Z,100803.94
2018-07-31T04:40:56.115Z,100805.20
2018-07-31T04:43:25.042Z,100805.28
2018-07-31T04:45:54.020Z,100804.70
2018-07-31T04:48:23.724Z,100802.30
2018-07-31T04:50:52.789Z,100797.77
2018-07-31T04:53:21.876Z,100799.41
2018-07-31T04:55:50.806Z,100801.80
2018-07-31T04:58:19.917Z,100809.84
2018-07-31T05:00:48.948Z,100802.58
2018-07-31T05:03:18.031Z,100809.55
2018-07-31T05:05:47.006Z,100805.88
2018-07-31T05:08:16.828Z,100803.42
2018-07-31T05:10:45.798Z,100801.94
2018-07-31T05:13:14.858Z,100802.59
2018-07-31T05:15:43.805Z,100803.20
2018-07-31T05:18:12.787Z,100807.39
2018-07-31T05:20:41.715Z,100808.80
2018-07-31T05:23:10.728Z,100815.15
2018-07-31T05:25:40.393Z,100819.11
2018-07-31T05:28:09.436Z,100818.77
2018-07-31T05:30:38.500Z,100811.41
2018-07-31T05:33:07.531Z,100810.16
2018-07-31T05:35:37.100Z,100812.31
2018-07-31T05:38:06.286Z,100812.55
2018-07-31T05:40:35.373Z,100818.86
2018-07-31T05:43:04.523Z,100823.14
2018-07-31T05:45:34.178Z,100827.50
2018-07-31T05:48:03.458Z,100828.22
2018-07-31T05:50:32.938Z,100824.42
2018-07-31T05:53:01.975Z,100827.27
2018-07-31T05:55:31.710Z,100832.77
2018-07-31T05:58:01.316Z,100837.19
2018-07-31T06:00:30.250Z,100842.75
2018-07-31T06:02:59.526Z,100845.73
2018-07-31T06:05:28.739Z,100849.58
2018-07-31T06:07:57.894Z,100841.06
2018-07-31T06:10:27.439Z,100840.69
2018-07-31T06:12:56.691Z,100840.39
2018-07-31T06:15:25.791Z,100841.20
2018-07-31T06:17:54.726Z,100847.09
2018-07-31T06:20:23.956Z,100845.95
2018-07-31T06:22:53.615Z,100845.61
2018-07-31T06:25:23.571Z,100845.20
2018-07-31T06:27:53.773Z,100849.73
2018-07-31T06:30:23.186Z,100851.06
2018-07-31T06:32:52.308Z,100849.95
2018-07-31T06:35:22.541Z,100854.78
2018-07-31T06:37:51.723Z,100860.99
2018-07-31T06:40:20.877Z,100869.06
2018-07-31T06:42:50.154Z,100864.27
2018-07-31T06:45:20.422Z,100869.08
2018-07-31T06:47:49.799Z,100872.19
2018-07-31T06:50:19.034Z,100874.77
2018-07-31T06:52:48.343Z,100869.33
2018-07-31T06:55:17.439Z,100873.00
2018-07-31T06:57:46.542Z,100872.48
2018-07-31T07:00:15.802Z,100880.20
2018-07-31T07:02:44.955Z,100880.65
2018-07-31T07:05:14.218Z,100868.67
2018-07-31T07:07:43.307Z,100870.44
2018-07-31T07:10:12.434Z,100869.48
2018-07-31T07:12:41.562Z,100872.50
2018-07-31T07:15:10.991Z,100865.15
2018-07-31T07:17:40.732Z,100870.24
2018-07-31T07:20:10.487Z,100868.20
2018-07-31T07:22:40.003Z,100870.89
2018-07-31T07:25:09.637Z,100872.67
2018-07-31T07:27:38.570Z,100868.92
2018-07-31T07:30:08.110Z,100869.98
2018-07-31T07:32:37.376Z,100864.70
2018-07-31T07:35:06.654Z,100865.85
2018-07-31T07:37:35.938Z,100869.64
2018-07-31T07:40:05.066Z,100866.14
2018-07-31T07:42:34.598Z,100867.18
2018-07-31T07:45:04.471Z,100859.42
2018-07-31T07:47:33.951Z,100864.84
2018-07-31T07:50:03.485Z,100862.03
2018-07-31T07:52:33.182Z,100857.11
2018-07-31T07:55:02.516Z,100850.92
2018-07-31T07:57:31.818Z,100854.74
2018-07-31T08:00:01.070Z,100852.77
2018-07-31T08:02:30.397Z,100853.22
2018-07-31T08:05:00.279Z,100846.94
2018-07-31T08:07:29.416Z,100842.30
2018-07-31T08:09:58.658Z,100836.85
2018-07-31T08:12:27.809Z,100836.22
2018-07-31T08:14:57.322Z,100826.61
2018-07-31T08:17:26.602Z,100823.59
2018-07-31T08:19:55.660Z,100829.12
2018-07-31T08:22:25.643Z,100829.96
2018-07-31T08:24:54.922Z,100841.77
2018-07-31T08:27:24.206Z,100832.77
2018-07-31T08:29:53.380Z,100836.41
2018-07-31T08:32:22.588Z,100838.89
2018-07-31T08:34:51.547Z,100837.80
2018-07-31T08:37:20.765Z,100842.77
2018-07-31T08:39:50.463Z,100839.41
2018-07-31T08:42:19.971Z,100840.81
2018-07-31T08:44:49.929Z,100841.98
2018-07-31T08:47:19.872Z,100839.97
2018-07-31T08:49:50.406Z,100839.50
2018-07-31T08:52:20.036Z,100843.91
2018-07-31T08:54:49.645Z,100838.91
2018-07-31T08:57:18.910Z,100846.48
2018-07-31T08:59:48.010Z,100844.54
2018-07-31T09:02:17.235Z,100845.23
2018-07-31T09:04:46.417Z,100849.02
2018-07-31T09:07:15.675Z,100854.27
2018-07-31T09:09:45.071Z,100862.27
2018-07-31T09:12:15.062Z,100861.34
2018-07-31T09:14:44.425Z,100857.78
2018-07-31T09:17:13.774Z,100858.22
2018-07-31T09:19:43.195Z,100851.41
2018-07-31T09:22:12.892Z,100853.33
2018-07-31T09:24:42.508Z,100856.61
2018-07-31T09:27:12.317Z,100854.86
2018-07-31T09:29:41.858Z,100860.60
2018-07-31T09:32:10.921Z,100860.25
2018-07-31T09:34:46.155Z,100852.64
2018-07-31T09:37:16.484Z,100850.63
2018-07-31T09:39:45.946Z,100835.33
2018-07-31T09:42:15.490Z,100841.13
2018-07-31T09:44:44.419Z,100846.28
2018-07-31T09:47:13.710Z,100846.56
2018-07-31T09:49:43.611Z,100851.54
2018-07-31T09:52:13.127Z,100845.36
2018-07-31T09:54:42.639Z,100848.67
2018-07-31T09:57:11.925Z,100846.29
2018-07-31T09:59:41.198Z,100851.27
2018-07-31T10:02:10.311Z,100849.33
2018-07-31T10:04:40.600Z,100841.27
2018-07-31T10:07:09.757Z,100841.77
2018-07-31T10:09:39.048Z,100841.28
2018-07-31T10:12:08.361Z,100839.59
2018-07-31T10:14:37.418Z,100844.31
2018-07-31T10:17:07.218Z,100839.84
2018-07-31T10:19:41.059Z,100840.81
2018-07-31T10:22:10.230Z,100844.72
2018-07-31T10:24:39.406Z,100836.20
2018-07-31T10:27:09.005Z,100828.50
2018-07-31T10:29:38.734Z,100822.88
2018-07-31T10:32:08.437Z,100835.06
2018-07-31T10:34:38.155Z,100832.25
2018-07-31T10:37:07.571Z,100841.53
2018-07-31T10:39:36.822Z,100842.36
2018-07-31T10:42:06.278Z,100843.94
2018-07-31T10:44:36.068Z,100848.14
2018-07-31T10:47:05.323Z,100842.78
2018-07-31T10:49:34.570Z,100840.02
2018-07-31T10:52:04.510Z,100837.16
2018-07-31T10:54:33.795Z,100841.38
2018-07-31T10:57:03.110Z,100845.19
2018-07-31T10:59:32.407Z,100841.56
2018-07-31T11:02:01.928Z,100837.05
2018-07-31T11:04:31.874Z,100849.31
2018-07-31T11:07:01.119Z,100852.90
2018-07-31T11:09:30.638Z,100849.80
2018-07-31T11:12:00.322Z,100842.98
2018-07-31T11:14:29.625Z,100849.23
2018-07-31T11:16:58.958Z,100841.87
2018-07-31T11:19:28.889Z,100849.69
2018-07-31T11:21:58.146Z,100851.36
2018-07-31T11:24:27.474Z,100852.91
2018-07-31T11:26:56.791Z,100849.27
2018-07-31T11:29:26.207Z,100853.06
2018-07-31T11:31:56.183Z,100857.14
2018-07-31T11:34:26.116Z,100838.14
2018-07-31T11:36:55.647Z,100844.05
2018-07-31T11:39:24.861Z,100840.47
2018-07-31T11:41:53.974Z,100837.78
2018-07-31T11:44:22.922Z,100842.80
2018-07-31T11:46:52.384Z,100833.41
2018-07-31T11:49:21.644Z,100836.68
2018-07-31T11:51:51.386Z,100832.25
2018-07-31T11:54:21.059Z,100826.83
2018-07-31T11:56:50.851Z,100840.61
2018-07-31T11:59:20.534Z,100842.52
2018-07-31T12:01:50.009Z,100840.30
2018-07-31T12:04:19.067Z,100840.27
2018-07-31T12:06:49.138Z,100837.53
2018-07-31T12:09:18.299Z,100840.00
2018-07-31T12:11:47.798Z,100844.34
2018-07-31T12:14:16.940Z,100841.34
2018-07-31T12:16:47.038Z,100845.72
2018-07-31T12:19:16.162Z,100838.60
2018-07-31T12:21:45.263Z,100841.96
2018-07-31T12:24:14.747Z,100837.03
2018-07-31T12:26:43.857Z,100844.16
2018-07-31T12:29:14.411Z,100842.47
2018-07-31T12:31:43.642Z,100843.05
2018-07-31T12:34:13.082Z,100835.38
2018-07-31T12:36:42.409Z,100842.25
2018-07-31T12:39:12.803Z,100833.20
2018-07-31T12:41:42.059Z,100844.71
2018-07-31T12:44:11.125Z,100839.98
2018-07-31T12:46:40.458Z,100845.16
2018-07-31T12:49:09.707Z,100847.37
2018-07-31T12:51:38.934Z,100849.94
2018-07-31T12:54:08.171Z,100839.50
2018-07-31T12:56:37.347Z,100837.30
2018-07-31T12:59:06.402Z,100844.97
2018-07-31T13:01:35.350Z,100845.00
2018-07-31T13:04:05.139Z,100835.12
2018-07-31T13:06:34.362Z,100841.15
2018-07-31T13:09:03.955Z,100839.96
2018-07-31T13:11:33.424Z,100845.74
2018-07-31T13:14:03.012Z,100842.44
2018-07-31T13:16:32.301Z,100838.94
2018-07-31T13:19:01.853Z,100831.55
2018-07-31T13:21:31.770Z,100832.63
2018-07-31T13:24:01.019Z,100841.63
2018-07-31T13:26:30.394Z,100835.88
2018-07-31T13:29:00.094Z,100838.62
2018-07-31T13:31:29.666Z,100837.48
2018-07-31T13:33:59.635Z,100838.33
2018-07-31T13:36:29.067Z,100833.63
2018-07-31T13:38:59.154Z,100822.46
2018-07-31T13:41:28.381Z,100820.28
2018-07-31T13:43:58.231Z,100823.28
2018-07-31T13:46:27.374Z,100828.53
2018-07-31T13:48:56.469Z,100818.39
2018-07-31T13:51:26.203Z,100817.28
2018-07-31T13:53:55.658Z,100820.02
2018-07-31T13:56:25.255Z,100829.03
2018-07-31T13:58:55.986Z,100819.98
2018-07-31T14:01:25.246Z,100826.58
2018-07-31T14:03:55.465Z,100825.20
2018-07-31T14:06:24.445Z,100816.98
2018-07-31T14:08:53.752Z,100822.16
2018-07-31T14:11:23.706Z,100821.58
2018-07-31T14:13:53.113Z,100820.45
2018-07-31T14:16:22.021Z,100822.09
2018-07-31T14:18:51.322Z,100831.41
2018-07-31T14:21:20.460Z,100835.25
2018-07-31T14:23:50.213Z,100834.70
2018-07-31T14:26:19.443Z,100840.75
2018-07-31T14:28:49.623Z,100849.21
2018-07-31T14:31:18.913Z,100858.39
2018-07-31T14:33:47.866Z,100857.63
2018-07-31T14:36:16.832Z,100859.00
2018-07-31T14:38:46.461Z,100857.86
2018-07-31T14:41:15.735Z,100857.63
2018-07-31T14:43:44.722Z,100851.02
2018-07-31T14:46:13.678Z,100846.62
2018-07-31T14:48:43.153Z,100851.00
2018-07-31T14:51:12.140Z,100854.25
2018-07-31T14:53:41.112Z,100859.16
2018-07-31T14:56:10.286Z,100860.31
2018-07-31T14:58:39.242Z,100866.32
2018-07-31T15:01:08.347Z,100864.17
2018-07-31T15:03:37.438Z,100862.42
2018-07-31T15:06:06.842Z,100858.63
2018-07-31T15:08:38.612Z,100861.43
2018-07-31T15:11:09.744Z,100858.95
2018-07-31T15:13:39.102Z,100846.11
2018-07-31T15:16:08.518Z,100843.61
2018-07-31T15:18:37.977Z,100854.85
2018-07-31T15:21:08.039Z,100852.40
2018-07-31T15:23:37.894Z,100857.87
2018-07-31T15:26:08.919Z,100855.13
2018-07-31T15:28:37.891Z,100849.85
2018-07-31T15:31:07.177Z,100846.54
2018-07-31T15:33:36.270Z,100844.45
2018-07-31T15:36:05.389Z,100844.95
2018-07-31T15:38:34.906Z,100849.86
2018-07-31T15:41:04.812Z,100857.03
2018-07-31T15:43:34.274Z,100861.70
2018-07-31T15:46:03.384Z,100860.05
2018-07-31T15:48:32.556Z,100861.17
2018-07-31T15:51:01.884Z,100866.41
2018-07-31T15:53:31.425Z,100867.48
2018-07-31T15:56:00.390Z,100867.20
2018-07-31T15:58:30.090Z,100872.95
2018-07-31T16:00:59.183Z,100872.08
2018-07-31T16:03:28.705Z,100875.35
2018-07-31T16:05:58.403Z,100870.36
2018-07-31T16:08:27.542Z,100877.80
2018-07-31T16:10:57.272Z,100879.95
2018-07-31T16:13:26.568Z,100884.86
2018-07-31T16:15:55.838Z,100887.31
2018-07-31T16:18:25.164Z,100882.53
2018-07-31T16:20:54.842Z,100879.52
2018-07-31T16:23:24.936Z,100872.56
2018-07-31T16:25:54.708Z,100879.66
2018-07-31T16:28:23.799Z,100874.75
2018-07-31T16:30:53.247Z,100878.09
2018-07-31T16:33:22.417Z,100876.17
2018-07-31T16:35:52.010Z,100877.25
2018-07-31T16:38:21.170Z,100878.90
2018-07-31T16:40:51.224Z,100886.79
2018-07-31T16:43:20.359Z,100885.05
2018-07-31T16:45:50.067Z,100881.81
2018-07-31T16:48:19.765Z,100891.34
2018-07-31T16:50:49.090Z,100887.47
2018-07-31T16:53:18.566Z,100884.39
2018-07-31T16:55:48.407Z,100890.77
2018-07-31T16:58:17.839Z,100891.27
2018-07-31T17:00:47.917Z,100898.02
2018-07-31T17:03:17.443Z,100894.05
2018-07-31T17:05:46.529Z,100897.57
2018-07-31T17:08:17.143Z,100897.40
2018-07-31T17:10:46.586Z,100905.80
2018-07-31T17:13:16.127Z,100900.05
2018-07-31T17:15:45.555Z,100906.58
2018-07-31T17:18:15.302Z,100904.28
2018-07-31T17:20:44.794Z,100908.71
2018-07-31T17:23:15.653Z,100904.93
2018-07-31T17:25:44.783Z,100909.99
2018-07-31T17:28:15.039Z,100912.70
2018-07-31T17:30:44.197Z,100910.47
2018-07-31T17:33:13.780Z,100903.94
2018-07-31T17:35:42.734Z,100909.87
2018-07-31T17:38:18.598Z,100919.56
2018-07-31T17:40:47.578Z,100924.48
2018-07-31T17:43:16.573Z,100920.82
2018-07-31T17:45:45.571Z,100924.34
2018-07-31T17:48:15.410Z,100934.05
2018-07-31T17:50:44.607Z,100929.33
2018-07-31T17:53:13.634Z,100930.05
2018-07-31T17:55:42.622Z,100938.20
2018-07-31T17:58:11.770Z,100938.13
2018-07-31T18:00:40.747Z,100942.23
2018-07-31T18:03:09.865Z,100943.56
2018-07-31T18:05:38.851Z,100946.09
2018-07-31T18:08:07.824Z,100942.33
2018-07-31T18:10:36.800Z,100936.83
2018-07-31T18:13:07.153Z,100940.80
2018-07-31T18:15:36.076Z,100942.34
2018-07-31T18:18:05.204Z,100947.67
2018-07-31T18:20:34.251Z,100948.83
2018-07-31T18:23:03.230Z,100945.75
2018-07-31T18:25:32.309Z,100948.48
2018-07-31T18:28:01.296Z,100949.02
2018-07-31T18:30:30.356Z,100949.75
2018-07-31T18:32:59.343Z,100950.97
2018-07-31T18:35:28.321Z,100955.23
2018-07-31T18:37:57.351Z,100954.83
2018-07-31T18:40:27.298Z,100956.44
2018-07-31T18:42:56.293Z,100956.08
2018-07-31T18:45:25.598Z,100967.92
2018-07-31T18:47:54.677Z,100973.16
2018-07-31T18:50:25.330Z,100973.06
2018-07-31T18:52:54.308Z,100976.22
2018-07-31T18:55:23.393Z,100971.05
2018-07-31T18:57:52.413Z,100971.75
2018-07-31T19:00:21.410Z,100973.44
2018-07-31T19:02:50.443Z,100976.45
2018-07-31T19:05:19.452Z,100982.25
2018-07-31T19:07:48.399Z,100981.09
2018-07-31T19:10:17.482Z,100983.64
2018-07-31T19:12:46.562Z,100981.36
2018-07-31T19:15:15.593Z,100982.09
2018-07-31T19:17:44.591Z,100985.75
2018-07-31T19:20:13.568Z,100991.34
2018-07-31T19:22:42.618Z,100995.36
2018-07-31T19:25:11.729Z,100990.03
2018-07-31T19:27:40.837Z,101004.23
2018-07-31T19:30:09.798Z,100996.66
2018-07-31T19:32:38.873Z,101005.52
2018-07-31T19:35:08.015Z,101007.81
2018-07-31T19:37:36.997Z,101011.98
2018-07-31T19:40:06.229Z,101011.43
2018-07-31T19:42:35.476Z,101015.08
2018-07-31T19:45:04.829Z,101022.50
2018-07-31T19:47:33.879Z,101029.31
2018-07-31T19:50:02.825Z,101032.33
2018-07-31T19:52:31.833Z,101027.02
2018-07-31T19:55:00.927Z,101031.62
2018-07-31T19:57:30.327Z,101034.91
2018-07-31T19:59:59.303Z,101038.08
2018-07-31T20:02:28.791Z,101045.80
2018-07-31T20:04:57.986Z,101047.04
2018-07-31T20:07:27.140Z,101045.48
2018-07-31T20:09:56.370Z,101051.28
2018-07-31T20:12:25.351Z,101047.47
2018-07-31T20:14:54.275Z,101054.46
2018-07-31T20:17:23.479Z,101060.15
2018-07-31T20:19:52.467Z,101069.56
2018-07-31T20:22:21.491Z,101068.94
2018-07-31T20:24:50.464Z,101070.59
2018-07-31T20:27:20.221Z,101083.01
2018-07-31T20:29:49.226Z,101078.56
2018-07-31T20:32:18.223Z,101077.90
2018-07-31T20:34:47.909Z,101088.84
2018-07-31T20:37:17.446Z,101092.30
2018-07-31T20:39:46.490Z,101090.09
2018-07-31T20:42:15.498Z,101092.67
2018-07-31T20:44:44.536Z,101096.78
2018-07-31T20:47:13.510Z,101101.08
2018-07-31T20:49:42.544Z,101102.26
2018-07-31T20:52:12.532Z,101107.25
2018-07-31T20:54:41.504Z,101116.69
2018-07-31T20:57:10.588Z,101121.38
2018-07-31T20:59:39.618Z,101122.45
2018-07-31T21:02:09.190Z,101123.41
2018-07-31T21:04:38.248Z,101127.34
2018-07-31T21:07:07.959Z,101130.16
2018-07-31T21:09:36.933Z,101129.25
2018-07-31T21:12:06.722Z,101125.16
2018-07-31T21:14:36.495Z,101123.07
2018-07-31T21:17:05.562Z,101119.08
2018-07-31T21:19:34.836Z,101126.84
2018-07-31T21:22:03.927Z,101124.94
2018-07-31T21:24:33.076Z,101137.25
2018-07-31T21:27:02.131Z,101131.13
2018-07-31T21:29:31.198Z,101128.64
2018-07-31T21:32:00.859Z,101127.59
2018-07-31T21:34:29.929Z,101131.80
2018-07-31T21:36:58.935Z,101130.44
2018-07-31T21:39:27.913Z,101127.49
2018-07-31T21:41:56.902Z,101134.14
2018-07-31T21:44:25.903Z,101132.39
2018-07-31T21:46:54.898Z,101134.81
2018-07-31T21:49:23.831Z,101133.53
2018-07-31T21:51:52.793Z,101126.45
2018-07-31T21:54:21.866Z,101134.81
2018-07-31T21:56:50.823Z,101141.39
2018-07-31T21:59:20.514Z,101135.83
2018-07-31T22:01:49.465Z,101138.58
2018-07-31T22:04:18.498Z,101136.84
2018-07-31T22:06:47.504Z,101142.66
2018-07-31T22:09:16.496Z,101144.61
2018-07-31T22:11:46.043Z,101148.30
2018-07-31T22:14:14.998Z,101150.78
2018-07-31T22:16:43.951Z,101149.64
2018-07-31T22:19:12.939Z,101157.57
2018-07-31T22:21:42.594Z,101154.58
2018-07-31T22:24:11.652Z,101155.45
2018-07-31T22:26:40.729Z,101121.78
2018-07-31T22:29:09.745Z,101168.33
2018-07-31T22:31:38.962Z,101172.86
2018-07-31T22:34:08.210Z,101187.36
2018-07-31T22:36:37.171Z,101182.48
2018-07-31T22:39:08.892Z,101179.56
2018-07-31T22:41:38.325Z,101174.70
2018-07-31T22:44:07.327Z,101174.77
2018-07-31T22:46:36.459Z,101179.36
2018-07-31T22:49:05.478Z,101187.78
2018-07-31T22:51:34.419Z,101189.25
2018-07-31T22:54:03.366Z,101186.84
2018-07-31T22:56:32.366Z,101189.76
2018-07-31T22:59:01.387Z,101192.89
2018-07-31T23:01:30.350Z,101186.27
2018-07-31T23:03:59.332Z,101198.77
2018-07-31T23:06:28.264Z,101197.41
2018-07-31T23:08:57.556Z,101191.39
2018-07-31T23:11:26.580Z,101190.53
2018-07-31T23:13:56.202Z,101190.92
2018-07-31T23:16:25.219Z,101188.72
2018-07-31T23:18:54.485Z,101194.19
2018-07-31T23:21:23.490Z,101196.14
2018-07-31T23:23:52.371Z,101203.16
2018-07-31T23:26:21.371Z,101201.50
2018-07-31T23:28:50.561Z,101202.55
2018-07-31T23:31:19.578Z,101201.27
2018-07-31T23:33:48.545Z,101200.78
2018-07-31T23:36:17.487Z,101198.79
2018-07-31T23:38:46.478Z,101186.50
2018-07-31T23:41:15.530Z,101183.38
2018-07-31T23:43:44.551Z,101187.98
2018-07-31T23:46:13.534Z,101193.20
2018-07-31T23:48:42.504Z,101197.88
2018-07-31T23:51:11.507Z,101199.45
2018-07-31T23:53:40.676Z,101204.14
2018-07-31T23:56:09.617Z,101205.17
2018-07-31T23:58:38.593Z,101206.20
